Time;durP1;ratioP1;P1;durP2;ratioP2;P2;SDS_P1;SDS_P2;PMS_P1;PMS_P2;Temp;Humidity;BMP_temperature;BMP_pressure;BME280_temperature;BME280_humidity;BME280_pressure;Samples;Min_cycle;Max_cycle;Signal;HPM_P1;HPM_P2
2024/03/23 00:01:29;;;;;;;5.77;4.80;;;;;;;15.15;46.07;96797.41;5022895;28;20438;-72
2024/03/23 00:03:55;;;;;;;5.83;4.10;;;;;;;15.19;46.09;96788.91;5023583;28;20426;-71
2024/03/23 00:06:22;;;;;;;6.50;4.40;;;;;;;15.26;46.04;96788.94;5022175;28;20439;-71
2024/03/23 00:08:48;;;;;;;8.23;4.90;;;;;;;15.22;46.04;96789.53;5027810;28;20450;-72
2024/03/23 00:11:15;;;;;;;8.37;4.13;;;;;;;15.07;46.33;96781.69;5034879;28;20437;-71
2024/03/23 00:13:41;;;;;;;6.20;4.30;;;;;;;15.14;46.01;96772.81;5029724;28;20465;-71
2024/03/23 00:16:08;;;;;;;6.13;3.53;;;;;;;15.13;46.03;96775.66;5033442;28;20565;-72
2024/03/23 00:18:34;;;;;;;5.77;4.53;;;;;;;15.13;45.99;96765.91;5039903;28;20446;-72
2024/03/23 00:21:02;;;;;;;10.00;5.00;;;;;;;15.10;46.17;96766.31;5041227;28;20442;-72
2024/03/23 00:23:28;;;;;;;7.37;4.33;;;;;;;15.08;46.27;96767.50;5032047;28;20426;-72
2024/03/23 00:25:55;;;;;;;8.53;4.63;;;;;;;15.09;46.23;96755.94;5030928;28;20441;-72
2024/03/23 00:28:21;;;;;;;7.43;4.53;;;;;;;15.07;46.30;96761.41;5043262;28;20989;-73
2024/03/23 00:30:47;;;;;;;4.73;4.10;;;;;;;15.08;46.31;96759.56;5032254;28;20449;-70
2024/03/23 00:33:14;;;;;;;6.60;4.77;;;;;;;15.03;46.52;96746.94;5022823;28;20423;-72
2024/03/23 00:35:41;;;;;;;5.20;4.33;;;;;;;15.02;46.47;96745.31;5030379;28;20427;-70
2024/03/23 00:38:08;;;;;;;8.70;4.80;;;;;;;14.99;46.39;96751.00;5028667;28;20442;-71
2024/03/23 00:40:35;;;;;;;5.07;4.20;;;;;;;14.94;46.36;96740.19;5029939;28;20422;-72
2024/03/23 00:43:01;;;;;;;8.90;4.60;;;;;;;14.89;46.54;96733.66;5032913;28;20421;-72
2024/03/23 00:45:28;;;;;;;8.63;4.70;;;;;;;14.84;46.75;96722.06;5034243;28;20449;-72
2024/03/23 00:47:54;;;;;;;8.13;4.10;;;;;;;14.90;46.80;96714.19;5030570;28;20573;-72
2024/03/23 00:50:21;;;;;;;5.20;4.07;;;;;;;15.00;46.38;96718.31;5031711;28;20426;-72
2024/03/23 00:52:46;;;;;;;4.53;2.90;;;;;;;15.07;45.74;96706.00;5026421;28;20800;-70
2024/03/23 00:55:12;;;;;;;3.93;2.87;;;;;;;15.17;45.22;96703.81;5030371;28;20567;-70
2024/03/23 00:57:37;;;;;;;6.63;3.03;;;;;;;15.24;45.33;96703.06;5030937;28;20212;-71
2024/03/23 01:00:05;;;;;;;4.70;3.07;;;;;;;15.31;45.13;96695.97;5032981;28;20179;-71
2024/03/23 01:02:32;;;;;;;3.80;2.80;;;;;;;15.41;45.05;96696.44;5034543;28;20192;-70
2024/03/23 01:04:58;;;;;;;6.27;3.23;;;;;;;15.47;44.80;96700.94;5043430;28;20909;-72
2024/03/23 01:07:23;;;;;;;3.10;2.80;;;;;;;15.51;44.80;96696.06;5028446;28;20468;-72
2024/03/23 01:09:48;;;;;;;3.97;2.70;;;;;;;15.51;44.71;96694.25;5034286;28;20192;-72
2024/03/23 01:12:14;;;;;;;7.53;3.20;;;;;;;15.55;44.60;96693.84;5035396;28;20219;-71
2024/03/23 01:14:39;;;;;;;6.40;2.90;;;;;;;15.59;44.54;96684.53;5033754;28;20211;-71
2024/03/23 01:17:05;;;;;;;3.00;2.57;;;;;;;15.68;44.49;96680.72;5039147;28;20689;-72
2024/03/23 01:19:30;;;;;;;2.87;2.57;;;;;;;15.75;44.72;96684.19;5041110;28;20266;-72
2024/03/23 01:21:56;;;;;;;3.50;2.40;;;;;;;15.77;44.51;96673.44;5046513;28;20200;-71
2024/03/23 01:24:21;;;;;;;3.03;2.77;;;;;;;15.74;44.41;96682.56;5037686;28;20270;-72
2024/03/23 01:26:46;;;;;;;5.10;2.70;;;;;;;15.65;44.17;96674.00;5030939;28;20271;-70
2024/03/23 01:29:12;;;;;;;6.17;3.13;;;;;;;15.73;44.16;96680.09;5036266;28;20290;-72
2024/03/23 01:31:37;;;;;;;5.13;2.93;;;;;;;15.71;44.22;96667.13;5041673;28;20178;-72
2024/03/23 01:34:03;;;;;;;4.73;3.17;;;;;;;15.78;44.12;96662.66;5034251;28;20786;-71
2024/03/23 01:36:28;;;;;;;3.63;3.27;;;;;;;15.84;44.02;96657.59;5034566;28;20223;-72
2024/03/23 01:38:54;;;;;;;8.53;2.90;;;;;;;15.75;44.11;96657.75;5032776;28;20234;-71
2024/03/23 01:41:20;;;;;;;3.90;3.00;;;;;;;15.85;44.23;96660.06;5033747;28;20279;-72
2024/03/23 01:43:45;;;;;;;4.23;3.03;;;;;;;15.91;44.09;96661.09;5040041;28;20176;-71
2024/03/23 01:46:11;;;;;;;4.73;2.70;;;;;;;15.86;44.04;96648.47;5029676;28;20191;-71
2024/03/23 01:48:36;;;;;;;4.17;3.17;;;;;;;15.86;44.05;96653.78;5033832;28;20207;-70
2024/03/23 01:51:02;;;;;;;3.90;3.23;;;;;;;15.86;43.97;96639.75;5038493;28;20230;-70
2024/03/23 01:53:28;;;;;;;6.30;3.03;;;;;;;15.91;43.84;96632.84;5033584;28;20223;-71
2024/03/23 01:55:54;;;;;;;7.10;2.90;;;;;;;15.92;43.88;96626.56;5033479;28;20688;-73
2024/03/23 01:58:19;;;;;;;4.23;3.00;;;;;;;15.91;43.97;96635.50;5036763;28;20781;-72
2024/03/23 02:00:45;;;;;;;3.70;3.37;;;;;;;16.00;44.06;96638.78;5037372;28;20437;-72
2024/03/23 02:03:25;;;;;;;3.77;2.77;;;;;;;16.00;43.99;96622.91;5035620;28;20213;-71
2024/03/23 02:05:50;;;;;;;9.33;3.10;;;;;;;15.99;43.99;96610.72;5036869;28;20190;-72
2024/03/23 02:08:17;;;;;;;4.13;2.80;;;;;;;15.91;44.45;96613.53;5009130;28;20450;-70
2024/03/23 02:10:43;;;;;;;6.77;2.97;;;;;;;15.95;44.34;96610.28;5032677;28;20198;-71
2024/03/23 02:13:09;;;;;;;5.17;3.40;;;;;;;15.99;44.38;96601.97;5032994;28;20431;-70
2024/03/23 02:15:34;;;;;;;6.97;4.10;;;;;;;15.97;44.42;96610.09;5033453;28;20317;-73
2024/03/23 02:17:59;;;;;;;7.70;4.60;;;;;;;16.01;44.41;96613.94;5031953;28;20206;-71
2024/03/23 02:20:25;;;;;;;7.20;4.13;;;;;;;16.04;44.19;96596.91;5023855;28;20806;-72
2024/03/23 02:22:53;;;;;;;8.40;3.20;;;;;;;16.02;44.70;96581.22;5041807;28;20218;-73
2024/03/23 02:25:18;;;;;;;6.00;2.93;;;;;;;15.96;44.84;96593.41;5034516;28;20179;-71
2024/03/23 02:27:43;;;;;;;8.83;3.10;;;;;;;15.94;45.00;96592.00;5040015;28;20868;-72
2024/03/23 02:30:09;;;;;;;3.47;3.00;;;;;;;15.94;44.98;96584.88;5032937;28;20270;-72
2024/03/23 02:32:35;;;;;;;3.83;3.13;;;;;;;15.95;45.23;96583.06;5023927;28;20181;-72
2024/03/23 02:35:00;;;;;;;4.23;3.20;;;;;;;15.96;45.28;96580.19;5029568;28;20245;-72
2024/03/23 02:37:26;;;;;;;5.13;3.47;;;;;;;15.94;45.74;96584.06;5031588;28;20286;-72
2024/03/23 02:39:51;;;;;;;4.23;3.07;;;;;;;15.89;45.77;96595.25;5031959;28;20726;-73
2024/03/23 02:42:17;;;;;;;2.90;2.70;;;;;;;15.80;46.39;96588.50;5033690;28;20186;-72
2024/03/23 02:44:44;;;;;;;4.87;3.20;;;;;;;15.79;46.47;96586.88;5036876;28;20187;-72
2024/03/23 02:47:09;;;;;;;3.23;2.67;;;;;;;15.84;46.23;96586.25;5029992;28;20559;-72
2024/03/23 02:49:35;;;;;;;8.43;2.90;;;;;;;15.86;46.30;96574.50;5042131;28;20421;-72
2024/03/23 02:52:00;;;;;;;5.23;2.90;;;;;;;15.96;46.36;96574.13;5037988;28;20267;-73
2024/03/23 02:54:26;;;;;;;5.70;2.93;;;;;;;15.96;46.34;96564.34;5035422;28;20203;-69
2024/03/23 02:56:51;;;;;;;5.70;2.90;;;;;;;15.87;46.47;96557.63;5038871;28;20183;-72
2024/03/23 02:59:16;;;;;;;3.63;2.80;;;;;;;15.97;46.48;96562.53;5029903;28;20207;-72
2024/03/23 03:01:42;;;;;;;3.47;3.17;;;;;;;15.94;46.48;96561.09;5037638;28;20218;-74
2024/03/23 03:04:07;;;;;;;5.37;2.90;;;;;;;15.94;46.44;96555.00;5036065;28;20258;-71
2024/03/23 03:06:33;;;;;;;4.90;3.00;;;;;;;15.94;46.56;96555.81;5040041;28;20250;-72
2024/03/23 03:08:59;;;;;;;3.87;2.67;;;;;;;15.92;46.47;96554.38;5037500;28;20692;-73
2024/03/23 03:11:24;;;;;;;4.60;2.80;;;;;;;15.89;46.85;96552.13;5031421;28;20172;-73
2024/03/23 03:13:50;;;;;;;4.13;3.07;;;;;;;15.88;46.74;96550.53;5039315;28;20209;-72
2024/03/23 03:16:15;;;;;;;6.30;2.87;;;;;;;15.84;46.65;96544.00;5034424;28;20629;-72
2024/03/23 03:18:41;;;;;;;3.47;3.03;;;;;;;15.79;46.74;96555.97;5031471;28;20238;-72
2024/03/23 03:21:10;;;;;;;4.23;3.07;;;;;;;15.78;46.86;96538.50;5031935;28;20176;-72
2024/03/23 03:23:39;;;;;;;5.00;2.97;;;;;;;15.72;46.89;96541.13;5029854;28;20255;-71
2024/03/23 03:26:05;;;;;;;5.50;2.87;;;;;;;15.75;47.09;96556.56;5033716;28;20438;-71
2024/03/23 03:28:32;;;;;;;4.53;3.10;;;;;;;15.72;46.99;96536.66;5030759;28;20719;-72
2024/03/23 03:30:58;;;;;;;3.30;2.93;;;;;;;15.70;46.95;96536.06;5030143;28;20183;-72
2024/03/23 03:33:23;;;;;;;3.20;2.80;;;;;;;15.70;47.15;96527.28;5037412;28;20787;-73
2024/03/23 03:35:49;;;;;;;5.63;3.20;;;;;;;15.65;47.06;96530.53;5038129;28;20194;-70
2024/03/23 03:38:14;;;;;;;4.40;2.97;;;;;;;15.67;47.46;96531.16;5031401;28;20207;-70
2024/03/23 03:40:41;;;;;;;4.40;2.90;;;;;;;15.69;47.29;96521.22;5027944;28;20219;-70
2024/03/23 03:43:07;;;;;;;5.67;2.93;;;;;;;15.70;47.21;96514.91;5035733;28;20683;-71
2024/03/23 03:45:32;;;;;;;3.93;2.90;;;;;;;15.74;47.40;96520.59;5034274;28;20414;-72
2024/03/23 03:47:59;;;;;;;2.90;2.57;;;;;;;15.68;47.22;96511.66;5029396;28;20766;-72
2024/03/23 03:50:24;;;;;;;3.27;2.97;;;;;;;15.62;47.21;96515.13;5030039;28;20186;-72
2024/03/23 03:52:49;;;;;;;4.43;2.77;;;;;;;15.59;47.56;96504.97;5028842;28;21181;-72
2024/03/23 03:55:16;;;;;;;5.20;2.87;;;;;;;15.59;47.79;96492.56;5036110;28;20202;-71
2024/03/23 03:57:41;;;;;;;5.37;3.20;;;;;;;15.59;47.89;96489.91;5022394;28;20570;-72
2024/03/23 04:00:11;;;;;;;3.33;3.03;;;;;;;15.59;47.87;96478.53;5030092;28;20468;-72
2024/03/23 04:02:37;;;;;;;4.37;2.60;;;;;;;15.52;47.90;96467.97;5036170;28;20309;-71
2024/03/23 04:05:02;;;;;;;3.00;2.80;;;;;;;15.38;48.25;96468.97;5032515;28;20434;-72
2024/03/23 04:07:28;;;;;;;6.80;3.43;;;;;;;15.33;48.45;96469.56;5027244;28;21169;-69
2024/03/23 04:09:54;;;;;;;4.30;3.10;;;;;;;15.35;48.42;96468.34;5013184;28;20280;-72
2024/03/23 04:12:19;;;;;;;3.50;3.20;;;;;;;15.39;48.25;96452.13;5029644;28;20230;-71
2024/03/23 04:14:45;;;;;;;4.13;2.70;;;;;;;15.36;48.53;96437.50;5034943;28;20210;-71
2024/03/23 04:17:11;;;;;;;3.90;3.17;;;;;;;15.35;48.67;96427.97;5028784;28;20199;-70
2024/03/23 04:19:36;;;;;;;4.30;3.43;;;;;;;15.26;48.73;96426.50;5036992;28;20190;-73
2024/03/23 04:22:03;;;;;;;4.87;3.47;;;;;;;15.22;48.98;96436.66;5036623;28;20241;-72
2024/03/23 04:24:28;;;;;;;3.17;2.87;;;;;;;15.31;49.04;96432.00;5021863;28;20263;-70
2024/03/23 04:26:54;;;;;;;6.33;3.30;;;;;;;15.31;48.83;96429.38;5025848;28;20418;-72
2024/03/23 04:29:19;;;;;;;3.50;2.70;;;;;;;15.36;49.10;96434.88;5025924;28;20291;-71
2024/03/23 04:31:45;;;;;;;3.20;2.90;;;;;;;15.39;49.06;96442.34;5030801;28;20589;-71
2024/03/23 04:34:10;;;;;;;5.73;2.90;;;;;;;15.37;49.15;96444.41;5030613;28;20921;-71
2024/03/23 04:36:36;;;;;;;6.20;3.73;;;;;;;15.39;49.06;96437.06;5028772;28;20209;-72
2024/03/23 04:39:01;;;;;;;8.47;3.87;;;;;;;15.42;49.28;96460.44;5030137;28;20289;-73
2024/03/23 04:41:27;;;;;;;4.30;3.10;;;;;;;15.41;49.30;96466.72;5030045;28;20183;-71
2024/03/23 04:43:52;;;;;;;4.73;3.03;;;;;;;15.40;49.45;96459.81;5045402;28;20211;-73
2024/03/23 04:46:18;;;;;;;3.80;3.33;;;;;;;15.42;49.68;96465.72;5032097;28;20176;-74
2024/03/23 04:48:44;;;;;;;3.30;3.00;;;;;;;15.40;49.98;96467.75;5027082;28;20285;-73
2024/03/23 04:51:12;;;;;;;5.30;3.30;;;;;;;15.41;50.16;96471.22;5029879;28;20650;-72
2024/03/23 04:53:38;;;;;;;4.63;3.43;;;;;;;15.45;50.14;96489.09;5029126;28;20279;-74
2024/03/23 04:56:04;;;;;;;4.53;3.90;;;;;;;15.49;50.59;96500.88;5029167;28;20524;-73
2024/03/23 04:58:29;;;;;;;5.07;4.20;;;;;;;15.50;51.66;96506.97;5032122;28;20867;-73
2024/03/23 05:00:58;;;;;;;6.53;4.90;;;;;;;15.50;52.83;96507.78;5041241;28;20417;-73
2024/03/23 05:03:23;;;;;;;10.70;4.77;;;;;;;15.50;54.90;96520.97;5030844;28;20172;-73
2024/03/23 05:05:49;;;;;;;10.23;4.80;;;;;;;15.46;55.64;96527.69;5041125;28;20578;-73
2024/03/23 05:08:18;;;;;;;7.57;5.10;;;;;;;15.47;56.07;96518.75;5031719;28;20199;-71
2024/03/23 05:10:43;;;;;;;10.53;4.77;;;;;;;15.40;56.58;96511.81;5036632;28;20187;-71
2024/03/23 05:13:09;;;;;;;5.90;5.10;;;;;;;15.38;56.86;96519.13;5028980;28;20516;-72
2024/03/23 05:15:34;;;;;;;6.10;4.90;;;;;;;15.31;57.09;96516.47;5029547;28;20219;-71
2024/03/23 05:18:00;;;;;;;8.90;7.10;;;;;;;15.32;57.25;96521.53;5039395;28;20199;-73
2024/03/23 05:20:25;;;;;;;15.03;8.47;;;;;;;15.25;57.57;96512.00;5030753;28;20183;-72
2024/03/23 05:22:51;;;;;;;11.40;9.20;;;;;;;15.22;57.97;96525.59;5039883;28;20211;-71
2024/03/23 05:25:16;;;;;;;11.30;8.27;;;;;;;15.18;58.43;96530.47;5029109;28;20203;-72
2024/03/23 05:27:42;;;;;;;11.93;9.67;;;;;;;15.08;58.05;96515.00;5029326;28;20199;-72
2024/03/23 05:30:08;;;;;;;11.50;9.77;;;;;;;14.98;58.07;96525.91;5027619;28;20279;-72
2024/03/23 05:32:34;;;;;;;16.93;10.80;;;;;;;14.87;58.13;96537.81;5023567;28;20266;-73
2024/03/23 05:34:59;;;;;;;14.57;11.30;;;;;;;14.78;58.58;96533.72;5029154;28;21050;-74
2024/03/23 05:37:25;;;;;;;11.83;10.57;;;;;;;14.77;58.80;96529.44;5028744;28;20203;-73
2024/03/23 05:39:51;;;;;;;16.30;10.90;;;;;;;14.77;58.90;96542.63;5029577;28;20652;-72
2024/03/23 05:42:17;;;;;;;12.47;10.40;;;;;;;14.78;58.75;96560.09;5028035;28;20243;-72
2024/03/23 05:44:44;;;;;;;18.13;11.30;;;;;;;14.77;58.42;96562.94;5037165;28;20198;-72
2024/03/23 05:47:09;;;;;;;14.17;11.43;;;;;;;14.70;58.54;96570.81;5034916;28;20559;-74
2024/03/23 05:49:35;;;;;;;15.63;11.30;;;;;;;14.69;58.45;96585.00;5038751;28;20414;-72
2024/03/23 05:52:03;;;;;;;14.20;10.27;;;;;;;14.68;58.27;96588.66;5039807;28;20179;-72
2024/03/23 05:54:29;;;;;;;9.97;8.47;;;;;;;14.56;57.72;96591.78;5033752;28;20200;-72
2024/03/23 05:56:55;;;;;;;10.87;7.97;;;;;;;14.46;57.25;96580.78;5010254;28;20949;-72
2024/03/23 05:59:21;;;;;;;9.93;8.37;;;;;;;14.49;56.64;96596.19;5032404;28;20849;-72
2024/03/23 06:01:47;;;;;;;9.50;8.13;;;;;;;14.50;57.39;96586.47;5038701;28;20486;-72
2024/03/23 06:04:13;;;;;;;8.77;7.37;;;;;;;14.51;57.42;96593.38;5034545;28;20183;-71
2024/03/23 06:06:39;;;;;;;7.67;6.40;;;;;;;14.37;57.24;96592.44;5033941;28;20425;-72
2024/03/23 06:09:05;;;;;;;5.80;5.20;;;;;;;14.29;56.50;96601.34;5036693;28;20468;-72
2024/03/23 06:11:30;;;;;;;13.27;4.70;;;;;;;14.25;56.68;96600.88;5031702;28;20418;-71
2024/03/23 06:13:56;;;;;;;7.73;5.00;;;;;;;14.23;56.28;96602.91;5036447;28;20568;-72
2024/03/23 06:16:24;;;;;;;5.70;4.07;;;;;;;14.19;55.63;96603.47;5036284;28;20202;-72
2024/03/23 06:18:50;;;;;;;3.87;3.33;;;;;;;14.08;55.53;96607.44;5030079;28;20203;-72
2024/03/23 06:21:16;;;;;;;3.50;3.20;;;;;;;14.06;55.35;96612.06;5030827;28;20414;-71
2024/03/23 06:23:42;;;;;;;2.47;2.27;;;;;;;14.03;55.27;96605.38;5030106;28;20529;-72
2024/03/23 06:26:08;;;;;;;4.73;2.60;;;;;;;14.04;54.44;96614.06;5030667;28;20182;-71
2024/03/23 06:28:33;;;;;;;2.07;1.93;;;;;;;13.95;54.60;96626.56;5028723;28;20206;-70
2024/03/23 06:30:59;;;;;;;1.50;1.40;;;;;;;13.86;54.67;96638.22;5025771;28;20420;-71
2024/03/23 06:33:24;;;;;;;3.00;1.43;;;;;;;13.71;54.49;96654.06;5027399;28;20906;-71
2024/03/23 06:35:53;;;;;;;1.30;1.20;;;;;;;13.61;53.95;96657.78;5026879;28;20927;-72
2024/03/23 06:38:18;;;;;;;1.37;1.20;;;;;;;13.66;53.90;96671.22;5020898;28;20212;-71
2024/03/23 06:40:47;;;;;;;1.30;0.87;;;;;;;13.63;53.33;96682.13;5029884;28;20413;-72
2024/03/23 06:43:15;;;;;;;1.00;0.80;;;;;;;13.50;53.64;96682.78;5019524;28;20180;-71
2024/03/23 06:45:41;;;;;;;1.00;0.90;;;;;;;13.52;53.30;96670.28;5036432;28;20426;-72
2024/03/23 06:48:07;;;;;;;1.53;1.00;;;;;;;13.51;53.49;96676.53;5024175;28;20470;-71
2024/03/23 06:50:33;;;;;;;0.93;0.73;;;;;;;13.55;53.39;96692.78;5029361;28;20245;-72
2024/03/23 06:52:59;;;;;;;1.13;0.67;;;;;;;13.49;53.85;96701.38;5025491;28;20431;-71
2024/03/23 06:55:26;;;;;;;3.20;1.60;;;;;;;13.55;53.48;96699.84;5022880;28;20447;-71
2024/03/23 06:57:52;;;;;;;2.43;1.10;;;;;;;13.55;53.73;96713.00;5026598;28;20218;-71
2024/03/23 07:00:17;;;;;;;1.00;0.90;;;;;;;13.35;53.64;96706.47;5030041;28;20418;-71
2024/03/23 07:02:44;;;;;;;1.07;0.70;;;;;;;13.50;53.91;96716.19;5035107;28;20183;-72
2024/03/23 07:05:10;;;;;;;0.90;0.70;;;;;;;13.57;54.05;96722.38;5018093;28;20177;-72
2024/03/23 07:07:38;;;;;;;0.90;0.70;;;;;;;13.66;53.86;96734.44;5023594;28;20818;-72
2024/03/23 07:10:05;;;;;;;1.67;0.90;;;;;;;13.70;53.58;96736.69;5020891;28;20947;-71
2024/03/23 07:12:30;;;;;;;1.00;0.80;;;;;;;13.76;53.43;96742.06;5030354;28;20438;-72
2024/03/23 07:14:55;;;;;;;0.87;0.57;;;;;;;13.78;53.65;96741.84;5025410;28;20537;-72
2024/03/23 07:17:21;;;;;;;1.03;0.80;;;;;;;13.79;53.51;96743.50;5016198;28;20235;-72
2024/03/23 07:19:47;;;;;;;0.90;0.60;;;;;;;13.89;53.28;96738.75;5027399;28;20184;-71
2024/03/23 07:22:12;;;;;;;1.47;0.70;;;;;;;13.96;53.02;96744.09;5029619;28;20627;-71
2024/03/23 07:24:39;;;;;;;1.00;0.70;;;;;;;13.92;52.62;96746.28;5029266;28;20183;-71
2024/03/23 07:27:05;;;;;;;0.90;0.70;;;;;;;14.01;53.22;96756.72;5029283;28;20188;-72
2024/03/23 07:29:51;;;;;;;1.00;0.87;;;;;;;13.98;53.92;96748.19;5019768;28;20457;-71
2024/03/23 07:32:16;;;;;;;0.93;0.77;;;;;;;14.06;53.90;96759.63;5018238;28;20799;-71
2024/03/23 07:34:44;;;;;;;4.70;0.70;;;;;;;13.97;53.89;96764.16;5024531;28;20454;-72
2024/03/23 07:37:09;;;;;;;1.03;0.73;;;;;;;13.94;53.73;96752.19;5019925;28;20532;-72
2024/03/23 07:39:35;;;;;;;0.80;0.60;;;;;;;13.93;52.71;96773.44;5027386;28;20437;-71
2024/03/23 07:42:00;;;;;;;1.13;0.70;;;;;;;13.75;52.82;96773.81;5021530;28;20671;-71
2024/03/23 07:44:26;;;;;;;0.80;0.50;;;;;;;13.67;52.90;96772.94;5019781;28;20698;-72
2024/03/23 07:46:51;;;;;;;0.80;0.50;;;;;;;13.49;53.35;96778.56;5028030;28;20282;-72
2024/03/23 07:49:17;;;;;;;0.90;0.50;;;;;;;13.52;53.63;96775.56;5022036;28;20204;-71
2024/03/23 07:51:42;;;;;;;0.80;0.60;;;;;;;13.56;53.73;96780.44;5023554;28;20184;-71
2024/03/23 07:54:07;;;;;;;1.63;0.70;;;;;;;13.52;53.90;96787.91;5012278;28;20224;-71
2024/03/23 07:56:33;;;;;;;1.33;0.50;;;;;;;13.52;53.71;96786.09;5026059;28;20222;-70
2024/03/23 07:58:58;;;;;;;1.00;0.60;;;;;;;13.54;54.14;96787.75;5016638;28;20287;-71
2024/03/23 08:01:24;;;;;;;1.50;0.70;;;;;;;13.61;53.76;96796.53;5015995;28;20212;-71
2024/03/23 08:03:49;;;;;;;0.80;0.53;;;;;;;13.56;54.22;96817.31;5022964;28;20199;-72
2024/03/23 08:06:17;;;;;;;0.90;0.60;;;;;;;13.59;54.64;96823.06;5012136;28;20195;-71
2024/03/23 08:08:44;;;;;;;1.10;0.77;;;;;;;13.52;54.97;96832.66;5023751;28;20698;-72
2024/03/23 08:11:10;;;;;;;1.00;0.77;;;;;;;13.46;55.39;96849.19;5023881;28;20423;-72
2024/03/23 08:13:37;;;;;;;1.00;0.50;;;;;;;13.44;55.60;96869.59;5033147;28;20419;-72
2024/03/23 08:16:04;;;;;;;0.90;0.73;;;;;;;13.46;55.56;96859.72;5025161;28;20200;-70
2024/03/23 08:18:30;;;;;;;2.17;0.70;;;;;;;13.49;55.95;96843.53;5024881;28;20783;-71
2024/03/23 08:21:13;;;;;;;2.07;0.80;;;;;;;13.48;55.91;96848.00;5017904;28;20542;-72
2024/03/23 08:23:39;;;;;;;1.20;0.60;;;;;;;13.35;55.45;96895.13;5029932;28;20242;-71
2024/03/23 08:26:06;;;;;;;0.90;0.70;;;;;;;13.29;55.09;96899.28;5007367;28;20415;-69
2024/03/23 08:28:32;;;;;;;1.20;0.87;;;;;;;13.06;54.56;96905.38;5040288;28;20450;-71
2024/03/23 08:31:01;;;;;;;3.67;0.90;;;;;;;13.31;54.84;96917.53;5023928;28;20427;-72
2024/03/23 08:33:26;;;;;;;1.27;0.93;;;;;;;13.37;54.48;96930.81;5027072;28;20183;-72
2024/03/23 08:36:01;;;;;;;3.17;1.00;;;;;;;13.48;53.97;96932.25;5038477;28;20982;-72
2024/03/23 08:38:28;;;;;;;3.20;1.30;;;;;;;13.66;52.59;96937.19;5031472;28;20215;-72
2024/03/23 08:40:57;;;;;;;1.20;1.10;;;;;;;13.91;52.52;96944.03;5040945;28;20416;-72
2024/03/23 08:43:23;;;;;;;1.20;1.10;;;;;;;14.22;51.99;96932.50;5038337;28;20434;-73
2024/03/23 08:45:48;;;;;;;1.30;1.20;;;;;;;14.41;50.84;96925.88;5030948;28;20414;-73
2024/03/23 08:48:14;;;;;;;1.67;1.10;;;;;;;14.47;50.24;96919.88;5030244;28;20778;-73
2024/03/23 08:50:39;;;;;;;1.70;1.60;;;;;;;14.39;49.74;96922.59;5032910;28;20607;-73
2024/03/23 08:53:05;;;;;;;2.00;1.40;;;;;;;14.59;48.78;96922.84;5026830;28;20190;-73
2024/03/23 08:55:30;;;;;;;3.43;1.30;;;;;;;14.77;47.91;96921.66;5030062;28;20229;-72
2024/03/23 08:57:56;;;;;;;2.13;1.67;;;;;;;14.79;47.01;96936.28;5026517;28;20705;-71
2024/03/23 09:00:21;;;;;;;1.77;1.40;;;;;;;14.92;46.15;96940.91;5011674;28;20693;-72
2024/03/23 09:02:48;;;;;;;1.83;1.27;;;;;;;14.93;46.53;96957.53;5031345;28;20183;-71
2024/03/23 09:05:13;;;;;;;1.83;1.20;;;;;;;14.85;46.48;96976.94;5045431;28;20661;-72
2024/03/23 09:07:39;;;;;;;3.90;1.47;;;;;;;14.58;45.50;96987.97;5031607;28;20438;-72
2024/03/23 09:10:04;;;;;;;2.33;1.40;;;;;;;14.43;45.71;96993.22;5031726;28;20211;-72
2024/03/23 09:12:30;;;;;;;2.77;1.67;;;;;;;14.22;46.19;97001.88;5030145;28;20191;-72
2024/03/23 09:14:55;;;;;;;2.07;1.40;;;;;;;14.22;46.78;97017.69;5029992;28;20715;-70
2024/03/23 09:17:21;;;;;;;4.93;1.70;;;;;;;14.14;46.48;97015.09;5028590;28;20293;-71
2024/03/23 09:19:46;;;;;;;5.83;2.77;;;;;;;14.17;46.67;97014.75;5040467;28;20249;-72
2024/03/23 09:22:11;;;;;;;2.83;2.03;;;;;;;14.20;45.70;97024.94;5038458;28;20269;-72
2024/03/23 09:24:38;;;;;;;5.40;2.40;;;;;;;14.33;45.56;97029.56;5036465;28;20317;-71
2024/03/23 09:27:04;;;;;;;5.87;2.63;;;;;;;14.25;44.60;97027.03;5034679;28;20241;-72
2024/03/23 09:29:29;;;;;;;4.70;2.97;;;;;;;14.17;44.50;97021.84;5031854;28;20541;-72
2024/03/23 09:31:55;;;;;;;4.80;2.77;;;;;;;14.08;43.24;97021.09;5035106;28;20198;-71
2024/03/23 09:34:20;;;;;;;8.70;3.10;;;;;;;14.14;42.12;97033.56;5041162;28;20295;-72
2024/03/23 09:36:47;;;;;;;4.70;3.37;;;;;;;14.13;41.14;97021.38;5045297;28;20196;-73
2024/03/23 09:39:13;;;;;;;7.07;3.00;;;;;;;14.51;41.65;97016.03;5031140;28;20218;-74
2024/03/23 09:41:39;;;;;;;6.67;3.40;;;;;;;14.33;40.65;97012.97;5035103;28;20477;-73
2024/03/23 09:44:05;;;;;;;6.73;2.70;;;;;;;14.50;39.99;97013.59;5027074;28;20511;-74
2024/03/23 09:46:34;;;;;;;10.27;3.20;;;;;;;14.52;39.59;97012.41;5035751;28;20760;-73
2024/03/23 09:49:00;;;;;;;4.40;3.37;;;;;;;14.53;40.33;97014.03;5034501;28;20229;-72
2024/03/23 09:51:25;;;;;;;5.20;3.07;;;;;;;14.59;40.10;97012.50;5033450;28;20937;-72
2024/03/23 09:53:53;;;;;;;5.73;3.30;;;;;;;14.42;39.34;97019.78;5030506;28;20535;-72
2024/03/23 09:56:18;;;;;;;4.80;3.00;;;;;;;14.48;39.97;97026.13;5035175;28;20195;-71
2024/03/23 09:58:43;;;;;;;6.30;2.90;;;;;;;14.35;40.52;97019.69;5038108;28;20540;-72
2024/03/23 10:01:09;;;;;;;6.17;3.10;;;;;;;14.40;40.59;97024.41;5026400;28;20211;-72
2024/03/23 10:03:44;;;;;;;10.50;3.57;;;;;;;14.61;41.20;97025.53;5042338;28;20242;-72
2024/03/23 10:06:10;;;;;;;11.33;3.40;;;;;;;14.57;40.18;97023.25;5024941;28;20184;-73
2024/03/23 10:09:18;;;;;;;9.33;3.23;;;;;;;14.49;40.24;97009.31;5023257;28;21026;-71
2024/03/23 10:11:48;;;;;;;5.93;3.47;;;;;;;14.49;40.28;97006.69;5023566;28;20427;-72
2024/03/23 10:14:28;;;;;;;6.07;2.97;;;;;;;14.51;41.03;97012.59;5026532;28;20975;-72
2024/03/23 10:16:54;;;;;;;9.40;2.93;;;;;;;14.73;40.74;96998.50;5027441;28;20430;-73
2024/03/23 10:19:30;;;;;;;8.00;3.40;;;;;;;14.69;38.86;96993.78;5030397;28;20453;-71
2024/03/23 10:21:56;;;;;;;8.10;3.37;;;;;;;14.65;38.43;96995.97;5016233;28;20183;-73
2024/03/23 10:24:21;;;;;;;7.17;2.90;;;;;;;14.49;38.37;97007.50;5023570;28;20434;-69
2024/03/23 10:26:56;;;;;;;8.73;3.60;;;;;;;14.55;37.96;97004.13;5017768;28;20185;-71
2024/03/23 10:29:22;;;;;;;6.70;3.20;;;;;;;14.78;37.18;96991.88;5027609;28;20203;-70
2024/03/23 10:31:47;;;;;;;4.97;2.90;;;;;;;15.22;38.43;96990.13;5021118;28;20508;-71
2024/03/23 10:34:12;;;;;;;11.70;4.17;;;;;;;15.68;35.92;96987.13;5030167;28;20197;-71
2024/03/23 10:36:40;;;;;;;9.20;3.60;;;;;;;15.65;35.60;96979.56;5029442;28;20187;-70
2024/03/23 10:39:07;;;;;;;9.07;3.60;;;;;;;15.20;35.39;97004.34;5025863;28;20203;-72
2024/03/23 10:41:33;;;;;;;6.30;3.00;;;;;;;15.10;36.26;97000.34;5027752;28;20458;-72
2024/03/23 10:44:01;;;;;;;10.70;4.50;;;;;;;15.08;36.02;96999.72;5029314;28;20504;-72
2024/03/23 10:46:26;;;;;;;9.20;3.47;;;;;;;14.96;36.35;97002.84;5025024;28;20196;-72
2024/03/23 10:48:52;;;;;;;8.83;3.40;;;;;;;14.83;37.39;97000.03;5019789;28;20507;-72
2024/03/23 10:51:17;;;;;;;5.03;3.10;;;;;;;14.71;37.56;97018.16;5020388;28;20203;-70
2024/03/23 10:53:45;;;;;;;5.00;2.90;;;;;;;14.26;39.58;97053.19;5020547;28;20180;-70
2024/03/23 10:56:11;;;;;;;9.80;3.67;;;;;;;13.85;42.33;97058.84;5014345;28;20666;-72
2024/03/23 10:58:42;;;;;;;5.53;2.93;;;;;;;13.30;45.73;97079.91;5015309;28;20470;-72
2024/03/23 11:01:11;;;;;;;2.40;2.20;;;;;;;12.77;47.64;97124.34;5018672;28;20431;-72
2024/03/23 11:03:37;;;;;;;5.10;2.20;;;;;;;12.44;47.36;97125.22;5023753;28;20430;-72
2024/03/23 11:06:06;;;;;;;8.00;2.47;;;;;;;12.34;47.57;97081.69;5032038;28;20442;-71
2024/03/23 11:08:39;;;;;;;2.83;1.83;;;;;;;12.08;49.91;97073.03;5023972;28;20447;-72
2024/03/23 11:11:24;;;;;;;3.40;1.83;;;;;;;12.25;48.85;97078.25;5023604;28;20510;-72
2024/03/23 11:13:51;;;;;;;5.63;2.10;;;;;;;12.55;50.75;97068.00;5023626;28;20451;-71
2024/03/23 11:16:22;;;;;;;5.30;2.17;;;;;;;12.96;50.11;97067.06;5026919;28;20477;-71
2024/03/23 11:18:47;;;;;;;3.47;2.27;;;;;;;13.18;48.62;97060.22;5024958;28;20478;-72
2024/03/23 11:21:50;;;;;;;3.50;2.03;;;;;;;13.50;48.82;97059.25;5023011;28;20978;-71
2024/03/23 11:24:15;;;;;;;7.83;2.13;;;;;;;13.78;48.34;97063.16;5020082;28;20183;-72
2024/03/23 11:26:41;;;;;;;6.07;2.03;;;;;;;14.15;48.57;97066.00;5026264;28;20453;-72
2024/03/23 11:29:13;;;;;;;2.93;2.37;;;;;;;14.61;47.52;97060.59;5018691;28;20199;-72